sensor_id;sensor_type;location;lat;lon;timestamp;pressure;altitude;pressure_sealevel;temperature;humidity
7768;BME280;3928;42.626;23.382;2023-07-31T00:00:20;93871.78;;;23.28;81.40
7768;BME280;3928;42.626;23.382;2023-07-31T00:02:47;93858.28;;;23.11;81.65
7768;BME280;3928;42.626;23.382;2023-07-31T00:05:14;93859.81;;;23.13;81.57
7768;BME280;3928;42.626;23.382;2023-07-31T00:07:42;93864.66;;;23.30;81.14
7768;BME280;3928;42.626;23.382;2023-07-31T00:10:09;93868.50;;;23.38;79.77
7768;BME280;3928;42.626;23.382;2023-07-31T00:12:38;93881.09;;;23.56;78.61
7768;BME280;3928;42.626;23.382;2023-07-31T00:15:05;93881.50;;;23.63;79.19
7768;BME280;3928;42.626;23.382;2023-07-31T00:17:32;93755.97;;;22.90;78.47
7768;BME280;3928;42.626;23.382;2023-07-31T00:19:59;93883.47;;;23.83;78.17
7768;BME280;3928;42.626;23.382;2023-07-31T00:22:26;93878.47;;;23.91;78.48
7768;BME280;3928;42.626;23.382;2023-07-31T00:24:55;93876.63;;;24.05;78.90
7768;BME280;3928;42.626;23.382;2023-07-31T00:27:22;93879.47;;;24.13;77.91
7768;BME280;3928;42.626;23.382;2023-07-31T00:29:48;93870.44;;;24.17;78.01
7768;BME280;3928;42.626;23.382;2023-07-31T00:32:15;93866.84;;;24.18;78.85
7768;BME280;3928;42.626;23.382;2023-07-31T00:34:42;93861.59;;;24.07;79.46
7768;BME280;3928;42.626;23.382;2023-07-31T00:37:09;93854.91;;;24.14;78.95
7768;BME280;3928;42.626;23.382;2023-07-31T00:39:36;93845.25;;;24.14;79.22
7768;BME280;3928;42.626;23.382;2023-07-31T00:42:05;93844.44;;;24.14;78.87
7768;BME280;3928;42.626;23.382;2023-07-31T00:44:32;93838.13;;;24.16;81.02
7768;BME280;3928;42.626;23.382;2023-07-31T00:46:59;93840.41;;;24.21;80.86
7768;BME280;3928;42.626;23.382;2023-07-31T00:49:26;93831.56;;;24.22;80.81
7768;BME280;3928;42.626;23.382;2023-07-31T00:51:53;93840.44;;;24.32;81.34
7768;BME280;3928;42.626;23.382;2023-07-31T00:54:23;93843.88;;;24.33;81.29
7768;BME280;3928;42.626;23.382;2023-07-31T00:56:50;93847.34;;;24.33;81.09
7768;BME280;3928;42.626;23.382;2023-07-31T00:59:21;93848.75;;;24.37;81.08
7768;BME280;3928;42.626;23.382;2023-07-31T01:01:48;93846.25;;;24.36;79.73
7768;BME280;3928;42.626;23.382;2023-07-31T01:04:16;93845.09;;;24.40;79.72
7768;BME280;3928;42.626;23.382;2023-07-31T01:06:51;93838.28;;;24.37;78.08
7768;BME280;3928;42.626;23.382;2023-07-31T01:09:30;93842.56;;;24.16;78.73
7768;BME280;3928;42.626;23.382;2023-07-31T01:12:01;93833.69;;;23.95;80.28
7768;BME280;3928;42.626;23.382;2023-07-31T01:14:30;93836.31;;;23.83;81.58
7768;BME280;3928;42.626;23.382;2023-07-31T01:16:57;93831.06;;;23.83;80.89
7768;BME280;3928;42.626;23.382;2023-07-31T01:19:25;93836.00;;;23.64;82.53
7768;BME280;3928;42.626;23.382;2023-07-31T01:22:16;93835.19;;;23.40;84.03
7768;BME280;3928;42.626;23.382;2023-07-31T01:24:55;93821.84;;;23.43;84.16
7768;BME280;3928;42.626;23.382;2023-07-31T01:27:30;93820.19;;;23.42;84.75
7768;BME280;3928;42.626;23.382;2023-07-31T01:30:05;93822.84;;;23.53;84.39
7768;BME280;3928;42.626;23.382;2023-07-31T01:32:38;93822.00;;;23.52;84.65
7768;BME280;3928;42.626;23.382;2023-07-31T01:35:07;93823.31;;;23.47;84.84
7768;BME280;3928;42.626;23.382;2023-07-31T01:37:34;93822.38;;;23.48;85.02
7768;BME280;3928;42.626;23.382;2023-07-31T01:40:01;93817.69;;;23.40;85.11
7768;BME280;3928;42.626;23.382;2023-07-31T01:42:29;93806.34;;;23.28;86.04
7768;BME280;3928;42.626;23.382;2023-07-31T01:44:56;93813.47;;;23.26;86.24
7768;BME280;3928;42.626;23.382;2023-07-31T01:47:23;93800.38;;;23.26;86.64
7768;BME280;3928;42.626;23.382;2023-07-31T01:49:50;93811.75;;;23.14;87.55
7768;BME280;3928;42.626;23.382;2023-07-31T01:52:16;93812.25;;;23.19;87.45
7768;BME280;3928;42.626;23.382;2023-07-31T01:54:46;93814.66;;;23.22;86.97
7768;BME280;3928;42.626;23.382;2023-07-31T01:57:13;93817.38;;;23.21;87.24
7768;BME280;3928;42.626;23.382;2023-07-31T01:59:42;93817.41;;;22.97;88.96
7768;BME280;3928;42.626;23.382;2023-07-31T02:02:09;93823.50;;;22.85;90.48
7768;BME280;3928;42.626;23.382;2023-07-31T02:04:36;93815.50;;;22.62;91.46
7768;BME280;3928;42.626;23.382;2023-07-31T02:07:04;93823.19;;;22.76;91.30
7768;BME280;3928;42.626;23.382;2023-07-31T02:09:31;93833.41;;;22.92;90.65
7768;BME280;3928;42.626;23.382;2023-07-31T02:11:58;93830.31;;;22.74;91.89
7768;BME280;3928;42.626;23.382;2023-07-31T02:14:24;93820.94;;;22.59;92.70
7768;BME280;3928;42.626;23.382;2023-07-31T02:16:52;93830.13;;;22.65;92.87
7768;BME280;3928;42.626;23.382;2023-07-31T02:19:19;93826.16;;;22.59;93.41
7768;BME280;3928;42.626;23.382;2023-07-31T02:21:46;93839.31;;;22.70;92.86
7768;BME280;3928;42.626;23.382;2023-07-31T02:24:13;93835.63;;;22.73;92.51
7768;BME280;3928;42.626;23.382;2023-07-31T02:26:40;93842.94;;;22.81;92.54
7768;BME280;3928;42.626;23.382;2023-07-31T02:29:07;93832.00;;;22.75;92.29
7768;BME280;3928;42.626;23.382;2023-07-31T02:31:34;93841.38;;;22.78;92.40
7768;BME280;3928;42.626;23.382;2023-07-31T02:34:02;93843.28;;;22.89;92.15
7768;BME280;3928;42.626;23.382;2023-07-31T02:36:29;93822.75;;;22.83;92.07
7768;BME280;3928;42.626;23.382;2023-07-31T02:38:56;93834.72;;;22.87;92.30
7768;BME280;3928;42.626;23.382;2023-07-31T02:41:23;93838.81;;;23.02;91.76
7768;BME280;3928;42.626;23.382;2023-07-31T02:43:50;93830.63;;;23.07;91.19
7768;BME280;3928;42.626;23.382;2023-07-31T02:46:17;93836.25;;;23.13;90.92
7768;BME280;3928;42.626;23.382;2023-07-31T02:48:43;93827.94;;;23.19;90.69
7768;BME280;3928;42.626;23.382;2023-07-31T02:51:12;93837.16;;;23.25;90.29
7768;BME280;3928;42.626;23.382;2023-07-31T02:53:39;93840.59;;;23.25;89.70
7768;BME280;3928;42.626;23.382;2023-07-31T02:56:05;93831.69;;;23.28;89.41
7768;BME280;3928;42.626;23.382;2023-07-31T02:58:32;93845.88;;;23.37;88.97
7768;BME280;3928;42.626;23.382;2023-07-31T03:00:59;93822.56;;;23.33;89.01
7768;BME280;3928;42.626;23.382;2023-07-31T03:03:26;93844.75;;;23.52;87.78
7768;BME280;3928;42.626;23.382;2023-07-31T03:05:53;93820.91;;;23.44;87.73
7768;BME280;3928;42.626;23.382;2023-07-31T03:08:21;93838.28;;;23.33;88.45
7768;BME280;3928;42.626;23.382;2023-07-31T03:10:48;93851.84;;;23.39;88.38
7768;BME280;3928;42.626;23.382;2023-07-31T03:13:15;93849.94;;;23.41;88.29
7768;BME280;3928;42.626;23.382;2023-07-31T03:15:42;93838.69;;;23.27;88.51
7768;BME280;3928;42.626;23.382;2023-07-31T03:18:09;93846.44;;;23.29;88.85
7768;BME280;3928;42.626;23.382;2023-07-31T03:20:35;93849.94;;;23.41;88.63
7768;BME280;3928;42.626;23.382;2023-07-31T03:23:02;93855.78;;;23.20;89.16
7768;BME280;3928;42.626;23.382;2023-07-31T03:25:30;93857.94;;;23.15;90.30
7768;BME280;3928;42.626;23.382;2023-07-31T03:27:57;93845.97;;;23.00;90.31
7768;BME280;3928;42.626;23.382;2023-07-31T03:30:24;93860.53;;;23.15;90.12
7768;BME280;3928;42.626;23.382;2023-07-31T03:32:51;93856.06;;;23.28;89.25
7768;BME280;3928;42.626;23.382;2023-07-31T03:35:17;93865.13;;;23.24;89.72
7768;BME280;3928;42.626;23.382;2023-07-31T03:37:44;93860.38;;;23.29;89.31
7768;BME280;3928;42.626;23.382;2023-07-31T03:40:11;93870.13;;;23.27;89.31
7768;BME280;3928;42.626;23.382;2023-07-31T03:42:39;93866.44;;;23.30;89.51
7768;BME280;3928;42.626;23.382;2023-07-31T03:45:07;93873.03;;;23.36;89.06
7768;BME280;3928;42.626;23.382;2023-07-31T03:47:34;93868.03;;;23.44;88.65
7768;BME280;3928;42.626;23.382;2023-07-31T03:50:01;93874.47;;;23.40;88.85
7768;BME280;3928;42.626;23.382;2023-07-31T03:52:28;93874.47;;;23.40;88.28
7768;BME280;3928;42.626;23.382;2023-07-31T03:54:55;93857.50;;;23.21;88.62
7768;BME280;3928;42.626;23.382;2023-07-31T03:57:22;93876.19;;;23.28;88.41
7768;BME280;3928;42.626;23.382;2023-07-31T03:59:50;93884.09;;;23.39;87.87
7768;BME280;3928;42.626;23.382;2023-07-31T04:02:17;93890.00;;;23.30;87.67
7768;BME280;3928;42.626;23.382;2023-07-31T04:04:44;93877.03;;;23.28;87.42
7768;BME280;3928;42.626;23.382;2023-07-31T04:07:11;93891.84;;;23.41;87.23
7768;BME280;3928;42.626;23.382;2023-07-31T04:09:38;93875.00;;;23.08;88.16
7768;BME280;3928;42.626;23.382;2023-07-31T04:12:05;93895.94;;;23.21;87.95
7768;BME280;3928;42.626;23.382;2023-07-31T04:14:32;93885.34;;;23.22;88.01
7768;BME280;3928;42.626;23.382;2023-07-31T04:17:00;93899.47;;;23.20;88.41
7768;BME280;3928;42.626;23.382;2023-07-31T04:19:27;93905.75;;;23.17;88.63
7768;BME280;3928;42.626;23.382;2023-07-31T04:21:54;93895.63;;;23.13;88.62
7768;BME280;3928;42.626;23.382;2023-07-31T04:24:21;93890.94;;;23.05;88.85
7768;BME280;3928;42.626;23.382;2023-07-31T04:26:49;93895.94;;;23.08;88.62
7768;BME280;3928;42.626;23.382;2023-07-31T04:29:16;93898.69;;;23.07;88.81
7768;BME280;3928;42.626;23.382;2023-07-31T04:31:43;93899.50;;;23.07;88.40
7768;BME280;3928;42.626;23.382;2023-07-31T04:34:11;93893.84;;;23.13;87.64
7768;BME280;3928;42.626;23.382;2023-07-31T04:36:38;93896.00;;;23.19;87.14
7768;BME280;3928;42.626;23.382;2023-07-31T04:39:05;93897.59;;;23.22;87.12
7768;BME280;3928;42.626;23.382;2023-07-31T04:41:32;93892.25;;;23.23;87.21
7768;BME280;3928;42.626;23.382;2023-07-31T04:43:59;93901.25;;;23.19;86.33
7768;BME280;3928;42.626;23.382;2023-07-31T04:46:26;93895.34;;;23.28;86.06
7768;BME280;3928;42.626;23.382;2023-07-31T04:48:52;93890.84;;;23.30;85.83
7768;BME280;3928;42.626;23.382;2023-07-31T04:51:21;93893.03;;;23.37;85.16
7768;BME280;3928;42.626;23.382;2023-07-31T04:53:48;93891.84;;;23.41;84.66
7768;BME280;3928;42.626;23.382;2023-07-31T04:56:15;93892.59;;;23.54;83.76
7768;BME280;3928;42.626;23.382;2023-07-31T04:58:42;93891.41;;;23.71;83.42
7768;BME280;3928;42.626;23.382;2023-07-31T05:01:09;93885.13;;;23.84;81.98
7768;BME280;3928;42.626;23.382;2023-07-31T05:03:36;93877.25;;;23.73;82.08
7768;BME280;3928;42.626;23.382;2023-07-31T05:06:03;93893.00;;;23.84;80.38
7768;BME280;3928;42.626;23.382;2023-07-31T05:08:31;93890.06;;;24.00;79.93
7768;BME280;3928;42.626;23.382;2023-07-31T05:10:59;93885.41;;;23.92;79.29
7768;BME280;3928;42.626;23.382;2023-07-31T05:13:26;93873.22;;;23.80;79.82
7768;BME280;3928;42.626;23.382;2023-07-31T05:15:52;93888.94;;;23.91;80.01
7768;BME280;3928;42.626;23.382;2023-07-31T05:18:19;93890.44;;;24.07;79.89
7768;BME280;3928;42.626;23.382;2023-07-31T05:20:46;93880.63;;;23.98;79.59
7768;BME280;3928;42.626;23.382;2023-07-31T05:23:13;93883.44;;;24.18;79.07
7768;BME280;3928;42.626;23.382;2023-07-31T05:25:41;93884.31;;;24.30;77.98
7768;BME280;3928;42.626;23.382;2023-07-31T05:28:08;93881.44;;;24.33;77.75
7768;BME280;3928;42.626;23.382;2023-07-31T05:30:35;93877.41;;;24.40;78.29
7768;BME280;3928;42.626;23.382;2023-07-31T05:33:02;93866.16;;;24.49;76.88
7768;BME280;3928;42.626;23.382;2023-07-31T05:35:29;93885.03;;;24.32;76.45
7768;BME280;3928;42.626;23.382;2023-07-31T05:37:55;93880.63;;;24.55;76.64
7768;BME280;3928;42.626;23.382;2023-07-31T05:40:22;93884.66;;;24.70;75.63
7768;BME280;3928;42.626;23.382;2023-07-31T05:42:50;93885.88;;;24.77;74.70
7768;BME280;3928;42.626;23.382;2023-07-31T05:45:17;93881.78;;;24.73;74.60
7768;BME280;3928;42.626;23.382;2023-07-31T05:47:44;93876.66;;;24.72;74.15
7768;BME280;3928;42.626;23.382;2023-07-31T05:50:11;93859.38;;;24.81;72.63
7768;BME280;3928;42.626;23.382;2023-07-31T05:52:39;93874.41;;;25.01;72.01
7768;BME280;3928;42.626;23.382;2023-07-31T05:55:07;93889.28;;;25.00;72.70
7768;BME280;3928;42.626;23.382;2023-07-31T05:57:34;93879.63;;;25.12;72.42
7768;BME280;3928;42.626;23.382;2023-07-31T06:00:04;93883.31;;;25.10;70.49
7768;BME280;3928;42.626;23.382;2023-07-31T06:02:32;93883.00;;;25.03;70.07
7768;BME280;3928;42.626;23.382;2023-07-31T06:05:02;93890.03;;;25.02;68.33
7768;BME280;3928;42.626;23.382;2023-07-31T06:07:31;93890.97;;;24.90;69.07
7768;BME280;3928;42.626;23.382;2023-07-31T06:09:58;93879.28;;;24.83;68.21
7768;BME280;3928;42.626;23.382;2023-07-31T06:12:28;93894.44;;;24.91;67.86
7768;BME280;3928;42.626;23.382;2023-07-31T06:14:55;93898.34;;;24.85;67.95
7768;BME280;3928;42.626;23.382;2023-07-31T06:17:23;93882.75;;;24.84;68.83
7768;BME280;3928;42.626;23.382;2023-07-31T06:19:51;93881.63;;;24.97;66.72
7768;BME280;3928;42.626;23.382;2023-07-31T06:22:21;93876.91;;;25.02;65.55
7768;BME280;3928;42.626;23.382;2023-07-31T06:24:48;93882.38;;;25.11;66.41
7768;BME280;3928;42.626;23.382;2023-07-31T06:27:15;93883.63;;;25.39;66.22
7768;BME280;3928;42.626;23.382;2023-07-31T06:29:42;93893.09;;;25.19;65.76
7768;BME280;3928;42.626;23.382;2023-07-31T06:32:09;93897.06;;;25.45;65.54
7768;BME280;3928;42.626;23.382;2023-07-31T06:34:37;93898.41;;;25.40;63.83
7768;BME280;3928;42.626;23.382;2023-07-31T06:37:05;93890.09;;;25.34;61.36
7768;BME280;3928;42.626;23.382;2023-07-31T06:39:32;93886.44;;;24.92;62.30
7768;BME280;3928;42.626;23.382;2023-07-31T06:41:59;93885.09;;;25.09;62.11
7768;BME280;3928;42.626;23.382;2023-07-31T06:44:25;93883.03;;;25.35;61.62
7768;BME280;3928;42.626;23.382;2023-07-31T06:46:52;93886.06;;;25.51;60.79
7768;BME280;3928;42.626;23.382;2023-07-31T06:49:19;93893.91;;;25.62;60.11
7768;BME280;3928;42.626;23.382;2023-07-31T06:51:47;93887.25;;;25.58;60.65
7768;BME280;3928;42.626;23.382;2023-07-31T06:54:14;93883.66;;;25.59;60.35
7768;BME280;3928;42.626;23.382;2023-07-31T06:56:41;93889.34;;;25.76;61.73
7768;BME280;3928;42.626;23.382;2023-07-31T06:59:07;93883.47;;;25.83;60.24
7768;BME280;3928;42.626;23.382;2023-07-31T07:01:34;93883.34;;;25.85;60.40
7768;BME280;3928;42.626;23.382;2023-07-31T07:04:01;93891.94;;;25.87;60.01
7768;BME280;3928;42.626;23.382;2023-07-31T07:06:28;93893.66;;;25.77;60.67
7768;BME280;3928;42.626;23.382;2023-07-31T07:08:56;93889.69;;;25.82;60.52
7768;BME280;3928;42.626;23.382;2023-07-31T07:11:23;93891.28;;;25.62;62.02
7768;BME280;3928;42.626;23.382;2023-07-31T07:13:50;93889.34;;;25.76;61.71
7768;BME280;3928;42.626;23.382;2023-07-31T07:16:17;93886.97;;;25.73;61.55
7768;BME280;3928;42.626;23.382;2023-07-31T07:18:44;93876.53;;;26.03;59.69
7768;BME280;3928;42.626;23.382;2023-07-31T07:21:11;93885.78;;;26.18;58.96
7768;BME280;3928;42.626;23.382;2023-07-31T07:23:41;93872.63;;;26.39;58.98
7768;BME280;3928;42.626;23.382;2023-07-31T07:26:09;93868.75;;;26.64;56.34
7768;BME280;3928;42.626;23.382;2023-07-31T07:28:36;93903.03;;;26.53;55.99
7768;BME280;3928;42.626;23.382;2023-07-31T07:31:03;93895.06;;;26.64;56.43
7768;BME280;3928;42.626;23.382;2023-07-31T07:33:30;93831.81;;;26.45;55.32
7768;BME280;3928;42.626;23.382;2023-07-31T07:36:00;93901.44;;;26.71;54.73
7768;BME280;3928;42.626;23.382;2023-07-31T07:38:27;93886.06;;;26.67;54.99
7768;BME280;3928;42.626;23.382;2023-07-31T07:40:54;93847.78;;;26.53;53.66
7768;BME280;3928;42.626;23.382;2023-07-31T07:43:22;93903.91;;;26.94;53.51
7768;BME280;3928;42.626;23.382;2023-07-31T07:45:49;93915.41;;;27.23;53.58
7768;BME280;3928;42.626;23.382;2023-07-31T07:48:16;93924.03;;;27.54;51.99
7768;BME280;3928;42.626;23.382;2023-07-31T07:50:43;93916.13;;;27.35;51.46
7768;BME280;3928;42.626;23.382;2023-07-31T07:53:10;93928.28;;;27.26;52.19
7768;BME280;3928;42.626;23.382;2023-07-31T07:55:37;93916.56;;;27.50;51.83
7768;BME280;3928;42.626;23.382;2023-07-31T07:58:03;93900.91;;;27.67;51.97
7768;BME280;3928;42.626;23.382;2023-07-31T08:00:31;93925.34;;;27.99;50.26
7768;BME280;3928;42.626;23.382;2023-07-31T08:02:58;93926.31;;;27.78;49.83
7768;BME280;3928;42.626;23.382;2023-07-31T08:05:25;93921.19;;;27.86;50.63
7768;BME280;3928;42.626;23.382;2023-07-31T08:07:52;93890.78;;;28.02;49.51
7768;BME280;3928;42.626;23.382;2023-07-31T08:10:19;93923.38;;;28.30;48.35
7768;BME280;3928;42.626;23.382;2023-07-31T08:12:46;93921.31;;;28.43;49.68
7768;BME280;3928;42.626;23.382;2023-07-31T08:15:12;93909.47;;;28.47;48.43
7768;BME280;3928;42.626;23.382;2023-07-31T08:17:41;93917.44;;;28.18;47.88
7768;BME280;3928;42.626;23.382;2023-07-31T08:20:08;93921.16;;;28.06;48.53
7768;BME280;3928;42.626;23.382;2023-07-31T08:22:35;93919.09;;;28.00;49.62
7768;BME280;3928;42.626;23.382;2023-07-31T08:25:03;93921.16;;;28.06;49.75
7768;BME280;3928;42.626;23.382;2023-07-31T08:27:29;93920.63;;;28.02;48.42
7768;BME280;3928;42.626;23.382;2023-07-31T08:29:56;93913.09;;;28.26;46.97
7768;BME280;3928;42.626;23.382;2023-07-31T08:32:23;93913.50;;;28.41;47.49
7768;BME280;3928;42.626;23.382;2023-07-31T08:34:51;93916.13;;;28.61;47.15
7768;BME280;3928;42.626;23.382;2023-07-31T08:37:18;93861.97;;;28.47;46.85
7768;BME280;3928;42.626;23.382;2023-07-31T08:39:45;93925.50;;;28.82;46.14
7768;BME280;3928;42.626;23.382;2023-07-31T08:42:12;93916.97;;;28.51;46.11
7768;BME280;3928;42.626;23.382;2023-07-31T08:44:39;93892.56;;;28.77;46.32
7768;BME280;3928;42.626;23.382;2023-07-31T08:47:06;93918.31;;;29.12;45.17
7768;BME280;3928;42.626;23.382;2023-07-31T08:49:33;93912.13;;;29.21;44.16
7768;BME280;3928;42.626;23.382;2023-07-31T08:52:03;93912.09;;;29.03;43.31
7768;BME280;3928;42.626;23.382;2023-07-31T08:54:30;93926.56;;;29.36;44.52
7768;BME280;3928;42.626;23.382;2023-07-31T08:56:58;93923.00;;;29.18;43.30
7768;BME280;3928;42.626;23.382;2023-07-31T08:59:27;93913.84;;;29.40;43.98
7768;BME280;3928;42.626;23.382;2023-07-31T09:01:57;93915.19;;;29.72;43.00
7768;BME280;3928;42.626;23.382;2023-07-31T09:04:28;93922.31;;;29.89;42.32
7768;BME280;3928;42.626;23.382;2023-07-31T09:07:00;93914.81;;;30.02;42.41
7768;BME280;3928;42.626;23.382;2023-07-31T09:09:30;93899.69;;;29.94;41.84
7768;BME280;3928;42.626;23.382;2023-07-31T09:11:57;93900.03;;;29.74;42.39
7768;BME280;3928;42.626;23.382;2023-07-31T09:14:25;93905.91;;;29.40;42.09
7768;BME280;3928;42.626;23.382;2023-07-31T09:16:53;93904.25;;;29.84;42.01
7768;BME280;3928;42.626;23.382;2023-07-31T09:19:27;93906.84;;;30.12;40.61
7768;BME280;3928;42.626;23.382;2023-07-31T09:21:54;93910.28;;;30.30;40.20
7768;BME280;3928;42.626;23.382;2023-07-31T09:24:32;93903.69;;;30.08;40.25
7768;BME280;3928;42.626;23.382;2023-07-31T09:27:01;93902.06;;;30.15;41.11
7768;BME280;3928;42.626;23.382;2023-07-31T09:29:29;93908.34;;;29.96;39.29
7768;BME280;3928;42.626;23.382;2023-07-31T09:31:56;93890.25;;;30.27;40.73
7768;BME280;3928;42.626;23.382;2023-07-31T09:34:29;93896.69;;;30.51;39.62
7768;BME280;3928;42.626;23.382;2023-07-31T09:36:59;93891.84;;;30.64;37.78
7768;BME280;3928;42.626;23.382;2023-07-31T09:39:27;93890.69;;;30.93;39.38
7768;BME280;3928;42.626;23.382;2023-07-31T09:41:57;93886.41;;;31.00;39.33
7768;BME280;3928;42.626;23.382;2023-07-31T09:44:37;93886.19;;;31.19;38.35
7768;BME280;3928;42.626;23.382;2023-07-31T09:47:05;93888.97;;;31.18;38.52
7768;BME280;3928;42.626;23.382;2023-07-31T09:49:32;93878.66;;;30.72;38.13
7768;BME280;3928;42.626;23.382;2023-07-31T09:51:59;93885.28;;;31.10;40.03
7768;BME280;3928;42.626;23.382;2023-07-31T09:54:25;93887.59;;;31.39;38.15
7768;BME280;3928;42.626;23.382;2023-07-31T09:56:53;93882.66;;;31.69;38.16
7768;BME280;3928;42.626;23.382;2023-07-31T09:59:22;93867.81;;;32.09;38.15
7768;BME280;3928;42.626;23.382;2023-07-31T10:01:49;93883.41;;;32.12;37.03
7768;BME280;3928;42.626;23.382;2023-07-31T10:04:18;93886.38;;;32.00;37.03
7768;BME280;3928;42.626;23.382;2023-07-31T10:06:49;93868.44;;;31.78;37.82
7768;BME280;3928;42.626;23.382;2023-07-31T10:09:18;93883.69;;;31.84;36.64
7768;BME280;3928;42.626;23.382;2023-07-31T10:11:48;93888.69;;;31.79;37.11
7768;BME280;3928;42.626;23.382;2023-07-31T10:14:18;93881.63;;;31.46;37.98
7768;BME280;3928;42.626;23.382;2023-07-31T10:16:47;93891.00;;;31.74;38.10
7768;BME280;3928;42.626;23.382;2023-07-31T10:19:14;93882.66;;;31.53;38.02
7768;BME280;3928;42.626;23.382;2023-07-31T10:21:42;93877.41;;;31.77;37.66
7768;BME280;3928;42.626;23.382;2023-07-31T10:24:09;93870.13;;;31.87;35.81
7768;BME280;3928;42.626;23.382;2023-07-31T10:26:37;93871.06;;;31.62;36.41
7768;BME280;3928;42.626;23.382;2023-07-31T10:29:06;93883.75;;;31.34;37.14
7768;BME280;3928;42.626;23.382;2023-07-31T10:31:34;93876.50;;;31.52;37.35
7768;BME280;3928;42.626;23.382;2023-07-31T10:34:03;93868.47;;;31.86;37.02
7768;BME280;3928;42.626;23.382;2023-07-31T10:36:30;93850.88;;;32.02;35.69
7768;BME280;3928;42.626;23.382;2023-07-31T10:38:57;93855.34;;;32.50;36.15
7768;BME280;3928;42.626;23.382;2023-07-31T10:41:30;93867.63;;;32.26;34.64
7768;BME280;3928;42.626;23.382;2023-07-31T10:43:58;93864.34;;;32.33;34.41
7768;BME280;3928;42.626;23.382;2023-07-31T10:46:24;93858.34;;;32.39;34.32
7768;BME280;3928;42.626;23.382;2023-07-31T10:48:57;93847.16;;;32.68;33.69
7768;BME280;3928;42.626;23.382;2023-07-31T10:51:32;93855.16;;;32.60;33.78
7768;BME280;3928;42.626;23.382;2023-07-31T10:54:10;93839.44;;;32.34;35.26
7768;BME280;3928;42.626;23.382;2023-07-31T10:56:37;93858.53;;;32.21;34.39
7768;BME280;3928;42.626;23.382;2023-07-31T10:59:04;93864.06;;;31.53;34.62
7768;BME280;3928;42.626;23.382;2023-07-31T11:01:52;93845.84;;;31.07;35.51
7768;BME280;3928;42.626;23.382;2023-07-31T11:04:22;93848.13;;;31.45;36.58
7768;BME280;3928;42.626;23.382;2023-07-31T11:07:01;93822.69;;;31.76;37.50
7768;BME280;3928;42.626;23.382;2023-07-31T11:09:29;93841.06;;;32.43;34.46
7768;BME280;3928;42.626;23.382;2023-07-31T11:11:58;93836.75;;;32.50;33.14
7768;BME280;3928;42.626;23.382;2023-07-31T11:14:25;93821.16;;;32.06;33.27
7768;BME280;3928;42.626;23.382;2023-07-31T11:16:52;93834.56;;;32.53;33.08
7768;BME280;3928;42.626;23.382;2023-07-31T11:19:22;93834.50;;;32.86;33.54
7768;BME280;3928;42.626;23.382;2023-07-31T11:21:50;93835.78;;;33.06;32.33
7768;BME280;3928;42.626;23.382;2023-07-31T11:24:19;93840.13;;;32.91;31.94
7768;BME280;3928;42.626;23.382;2023-07-31T11:26:50;93826.28;;;32.48;33.48
7768;BME280;3928;42.626;23.382;2023-07-31T11:29:17;93831.28;;;32.27;32.53
7768;BME280;3928;42.626;23.382;2023-07-31T11:31:45;93839.59;;;32.08;32.95
7768;BME280;3928;42.626;23.382;2023-07-31T11:34:13;93831.94;;;31.96;33.91
7768;BME280;3928;42.626;23.382;2023-07-31T11:36:40;93846.84;;;31.73;32.96
7768;BME280;3928;42.626;23.382;2023-07-31T11:39:08;93839.44;;;32.09;33.99
7768;BME280;3928;42.626;23.382;2023-07-31T11:41:40;93834.91;;;31.69;32.42
7768;BME280;3928;42.626;23.382;2023-07-31T11:44:07;93837.91;;;31.66;33.54
7768;BME280;3928;42.626;23.382;2023-07-31T11:46:34;93831.63;;;31.75;33.32
7768;BME280;3928;42.626;23.382;2023-07-31T11:49:02;93814.56;;;31.86;32.95
7768;BME280;3928;42.626;23.382;2023-07-31T11:51:29;93821.34;;;31.88;34.12
7768;BME280;3928;42.626;23.382;2023-07-31T11:53:58;93817.63;;;31.49;34.01
7768;BME280;3928;42.626;23.382;2023-07-31T11:56:27;93819.53;;;31.81;34.26
7768;BME280;3928;42.626;23.382;2023-07-31T11:58:58;93825.69;;;31.97;34.21
7768;BME280;3928;42.626;23.382;2023-07-31T12:01:26;93828.31;;;31.97;35.17
7768;BME280;3928;42.626;23.382;2023-07-31T12:03:54;93825.50;;;31.99;34.45
7768;BME280;3928;42.626;23.382;2023-07-31T12:06:21;93829.31;;;32.13;34.01
7768;BME280;3928;42.626;23.382;2023-07-31T12:08:48;93819.16;;;32.24;33.07
7768;BME280;3928;42.626;23.382;2023-07-31T12:11:15;93803.41;;;32.31;33.66
7768;BME280;3928;42.626;23.382;2023-07-31T12:13:43;93814.03;;;32.31;32.15
7768;BME280;3928;42.626;23.382;2023-07-31T12:16:11;93813.72;;;32.34;33.77
7768;BME280;3928;42.626;23.382;2023-07-31T12:18:39;93803.31;;;32.64;33.48
7768;BME280;3928;42.626;23.382;2023-07-31T12:21:07;93799.09;;;32.94;33.31
7768;BME280;3928;42.626;23.382;2023-07-31T12:23:37;93808.34;;;32.50;32.24
7768;BME280;3928;42.626;23.382;2023-07-31T12:26:06;93809.38;;;32.97;32.89
7768;BME280;3928;42.626;23.382;2023-07-31T12:28:36;93795.75;;;33.31;32.07
7768;BME280;3928;42.626;23.382;2023-07-31T12:31:04;93797.69;;;33.45;31.37
7768;BME280;3928;42.626;23.382;2023-07-31T12:33:34;93796.44;;;33.25;30.97
7768;BME280;3928;42.626;23.382;2023-07-31T12:36:02;93791.59;;;32.97;31.24
7768;BME280;3928;42.626;23.382;2023-07-31T12:38:29;93787.94;;;32.98;32.57
7768;BME280;3928;42.626;23.382;2023-07-31T12:40:56;93775.63;;;33.05;32.08
7768;BME280;3928;42.626;23.382;2023-07-31T12:43:23;93794.63;;;32.94;33.59
7768;BME280;3928;42.626;23.382;2023-07-31T12:45:50;93803.59;;;32.93;33.29
7768;BME280;3928;42.626;23.382;2023-07-31T12:48:17;93784.25;;;32.60;32.70
7768;BME280;3928;42.626;23.382;2023-07-31T12:50:45;93785.22;;;32.67;34.84
7768;BME280;3928;42.626;23.382;2023-07-31T12:53:12;93783.78;;;32.56;34.73
7768;BME280;3928;42.626;23.382;2023-07-31T12:55:38;93781.81;;;32.42;32.95
7768;BME280;3928;42.626;23.382;2023-07-31T12:58:05;93781.34;;;32.22;33.52
7768;BME280;3928;42.626;23.382;2023-07-31T13:00:32;93777.72;;;31.99;33.66
7768;BME280;3928;42.626;23.382;2023-07-31T13:02:59;93782.38;;;31.97;33.25
7768;BME280;3928;42.626;23.382;2023-07-31T13:05:26;93781.03;;;31.85;34.67
7768;BME280;3928;42.626;23.382;2023-07-31T13:07:54;93765.94;;;31.93;34.71
7768;BME280;3928;42.626;23.382;2023-07-31T13:10:22;93766.94;;;32.09;34.11
7768;BME280;3928;42.626;23.382;2023-07-31T13:12:49;93756.31;;;32.09;33.39